Time;durP1;ratioP1;P1;durP2;ratioP2;P2;SDS_P1;SDS_P2;PMS_P1;PMS_P2;Temp;Humidity;BMP_temperature;BMP_pressure;BME280_temperature;BME280_humidity;BME280_pressure;Samples;Min_cycle;Max_cycle;Signal;HPM_P1;HPM_P2
2023/07/09 00:02:24;;;;;;;0.98;0.95;;;22.20;73.30;;;;;;5096161;28;20245;-87
2023/07/09 00:04:52;;;;;;;2.88;1.48;;;22.20;73.40;;;;;;5094290;27;20197;-86
2023/07/09 00:07:27;;;;;;;0.50;0.50;;;22.10;73.40;;;;;;5097997;27;20273;-85
2023/07/09 00:09:56;;;;;;;7.82;1.35;;;22.10;73.50;;;;;;5104938;27;20560;-86
2023/07/09 00:12:26;;;;;;;1.67;0.50;;;22.10;73.70;;;;;;5105728;27;21031;-84
2023/07/09 00:14:56;;;;;;;1.80;0.77;;;22.10;73.70;;;;;;5102611;27;20197;-86
2023/07/09 00:17:30;;;;;;;0.40;0.40;;;22.00;74.00;;;;;;5097858;27;20190;-86
2023/07/09 00:19:59;;;;;;;1.13;0.68;;;22.00;74.00;;;;;;5108050;28;20190;-85
2023/07/09 00:22:28;;;;;;;1.52;0.95;;;22.00;73.90;;;;;;5096548;27;20574;-83
2023/07/09 00:24:57;;;;;;;1.35;0.85;;;21.90;74.10;;;;;;5107418;27;20658;-86
2023/07/09 00:27:29;;;;;;;0.30;0.30;;;21.90;74.60;;;;;;5104628;27;20696;-86
2023/07/09 00:30:00;;;;;;;2.05;0.35;;;21.90;74.70;;;;;;5108339;27;20197;-84
2023/07/09 00:32:29;;;;;;;0.40;0.40;;;21.80;74.60;;;;;;5095287;27;20194;-86
2023/07/09 00:34:57;;;;;;;1.35;0.65;;;21.80;74.70;;;;;;5099770;28;20198;-85
2023/07/09 00:37:27;;;;;;;1.40;0.60;;;21.80;74.90;;;;;;5095807;27;20204;-83
2023/07/09 00:39:56;;;;;;;0.88;0.88;;;21.80;75.20;;;;;;5094727;27;20194;-86
2023/07/09 00:42:25;;;;;;;2.03;0.63;;;21.80;75.20;;;;;;5093876;27;20752;-85
2023/07/09 00:44:56;;;;;;;0.40;0.40;;;21.70;75.20;;;;;;5101788;27;20201;-85
2023/07/09 00:47:31;;;;;;;1.10;0.88;;;21.70;75.20;;;;;;5097176;27;20631;-86
2023/07/09 00:50:16;;;;;;;1.10;0.65;;;21.70;75.20;;;;;;5098499;27;20213;-84
2023/07/09 00:52:53;;;;;;;1.00;0.63;;;21.70;76.10;;;;;;5098463;27;20205;-86
2023/07/09 00:55:26;;;;;;;0.68;0.40;;;21.70;75.40;;;;;;5088437;28;20193;-84
2023/07/09 00:57:59;;;;;;;0.50;0.50;;;21.70;75.30;;;;;;5104406;27;20191;-83
2023/07/09 01:00:45;;;;;;;2.28;0.43;;;21.70;75.60;;;;;;5105385;27;20196;-84
2023/07/09 01:03:25;;;;;;;1.08;0.82;;;21.70;75.90;;;;;;5091073;27;20286;-85
2023/07/09 01:05:55;;;;;;;1.65;1.08;;;21.60;75.70;;;;;;5102647;27;20185;-86
2023/07/09 01:08:24;;;;;;;0.90;0.68;;;21.60;76.40;;;;;;5094099;27;20232;-86
2023/07/09 01:10:52;;;;;;;0.57;0.57;;;21.60;77.00;;;;;;5102058;27;20213;-84
2023/07/09 01:13:21;;;;;;;1.08;0.90;;;21.60;77.70;;;;;;5094726;27;20285;-86
2023/07/09 01:15:50;;;;;;;1.65;0.50;;;21.50;77.50;;;;;;5100877;27;20194;-85
2023/07/09 01:18:21;;;;;;;0.68;0.68;;;21.50;78.30;;;;;;5099509;27;20634;-85
2023/07/09 01:20:52;;;;;;;0.52;0.47;;;21.50;77.60;;;;;;5103008;27;20188;-86
2023/07/09 01:23:22;;;;;;;0.60;0.60;;;21.50;77.50;;;;;;5094576;28;20196;-86
2023/07/09 01:25:54;;;;;;;1.02;0.88;;;21.40;77.30;;;;;;5104965;27;20196;-86
2023/07/09 01:28:23;;;;;;;1.48;0.90;;;21.40;77.20;;;;;;5095897;28;20212;-86
2023/07/09 01:30:53;;;;;;;1.70;0.63;;;21.40;77.00;;;;;;5099696;27;20196;-86
2023/07/09 01:33:23;;;;;;;0.32;0.32;;;21.40;77.00;;;;;;5090737;27;20217;-84
2023/07/09 01:35:52;;;;;;;0.82;0.47;;;21.30;77.00;;;;;;5102115;27;20209;-85
2023/07/09 01:38:30;;;;;;;0.20;0.20;;;21.30;77.00;;;;;;5098954;27;20647;-85
2023/07/09 01:40:58;;;;;;;0.30;0.30;;;21.30;77.10;;;;;;5097871;27;20197;-84
2023/07/09 01:43:27;;;;;;;1.75;1.10;;;21.30;77.20;;;;;;5094584;27;20201;-85
2023/07/09 01:45:57;;;;;;;0.60;0.60;;;21.30;77.20;;;;;;5110162;27;20566;-87
2023/07/09 01:48:27;;;;;;;0.40;0.38;;;21.20;77.70;;;;;;5094943;27;20218;-86
2023/07/09 01:50:56;;;;;;;0.45;0.45;;;21.20;78.00;;;;;;5097651;27;20208;-84
2023/07/09 01:53:31;;;;;;;0.60;0.60;;;21.20;77.90;;;;;;5096825;27;20643;-85
2023/07/09 01:56:00;;;;;;;0.85;0.65;;;21.10;77.90;;;;;;5096033;28;20239;-86
2023/07/09 01:58:31;;;;;;;0.30;0.30;;;21.10;78.20;;;;;;5094634;27;20221;-86
2023/07/09 02:01:01;;;;;;;0.40;0.40;;;21.10;78.40;;;;;;5114011;27;20190;-85
2023/07/09 02:03:30;;;;;;;0.43;0.40;;;21.00;78.50;;;;;;5095496;27;20192;-87
2023/07/09 02:05:59;;;;;;;5.10;1.48;;;21.00;79.10;;;;;;5110297;27;20646;-85
2023/07/09 02:08:29;;;;;;;3.17;1.10;;;21.00;79.40;;;;;;5100552;27;20235;-85
2023/07/09 02:10:58;;;;;;;0.30;0.30;;;20.90;80.50;;;;;;5107654;27;20213;-85
2023/07/09 02:13:27;;;;;;;0.70;0.70;;;20.80;80.30;;;;;;5091098;28;20205;-84
2023/07/09 02:15:57;;;;;;;1.80;0.70;;;20.80;80.00;;;;;;5089626;28;20538;-84
2023/07/09 02:18:26;;;;;;;0.30;0.30;;;20.80;80.00;;;;;;5096210;27;20569;-86
2023/07/09 02:20:55;;;;;;;1.75;0.93;;;20.80;80.00;;;;;;5094824;27;20188;-86
2023/07/09 02:23:29;;;;;;;0.43;0.40;;;20.70;80.50;;;;;;5096572;27;20200;-85
2023/07/09 02:25:57;;;;;;;1.38;0.50;;;20.70;80.50;;;;;;5096168;27;20190;-86
2023/07/09 02:28:26;;;;;;;0.52;0.52;;;20.70;81.00;;;;;;5100040;27;20322;-85
2023/07/09 02:30:55;;;;;;;2.80;1.20;;;20.60;81.00;;;;;;5097647;27;20216;-85
2023/07/09 02:33:24;;;;;;;0.93;0.70;;;20.60;81.10;;;;;;5096133;27;20190;-84
2023/07/09 02:35:52;;;;;;;0.82;0.50;;;20.50;80.90;;;;;;5090321;28;20643;-83
2023/07/09 02:38:21;;;;;;;0.40;0.40;;;20.50;80.90;;;;;;5087680;27;20200;-85
2023/07/09 02:40:53;;;;;;;0.90;0.73;;;20.50;81.30;;;;;;5107948;27;20266;-84
2023/07/09 02:43:22;;;;;;;0.43;0.43;;;20.50;81.20;;;;;;5102530;27;20189;-83
2023/07/09 02:45:50;;;;;;;0.38;0.38;;;20.50;81.20;;;;;;5103854;27;20690;-85
2023/07/09 02:48:19;;;;;;;1.00;0.60;;;20.50;81.10;;;;;;5098822;27;20217;-85
2023/07/09 02:50:48;;;;;;;3.13;1.75;;;20.50;81.40;;;;;;5090979;28;20202;-85
2023/07/09 02:53:16;;;;;;;0.63;0.52;;;20.40;81.40;;;;;;5096891;27;20190;-84
2023/07/09 02:55:45;;;;;;;0.98;0.90;;;20.40;81.20;;;;;;5100591;27;20194;-85
2023/07/09 02:58:16;;;;;;;0.30;0.30;;;20.40;82.10;;;;;;5103660;27;20916;-87
2023/07/09 03:00:51;;;;;;;0.68;0.68;;;20.40;81.10;;;;;;5091539;28;20200;-86
2023/07/09 03:03:21;;;;;;;0.95;0.60;;;20.40;81.10;;;;;;5093868;27;20186;-86
2023/07/09 03:05:50;;;;;;;0.85;0.73;;;20.40;81.50;;;;;;5105797;27;20220;-85
2023/07/09 03:08:19;;;;;;;0.38;0.38;;;20.40;81.30;;;;;;5090479;28;20233;-86
2023/07/09 03:10:47;;;;;;;0.45;0.45;;;20.40;81.40;;;;;;5098549;27;20198;-85
2023/07/09 03:13:18;;;;;;;2.55;1.20;;;20.40;81.30;;;;;;5094245;28;20193;-85
2023/07/09 03:15:56;;;;;;;0.88;0.85;;;20.40;81.40;;;;;;5099486;28;20197;-85
2023/07/09 03:18:25;;;;;;;1.25;1.15;;;20.40;81.40;;;;;;5099922;28;20516;-84
2023/07/09 03:20:54;;;;;;;1.70;1.17;;;20.40;81.30;;;;;;5089990;28;20201;-86
2023/07/09 03:23:22;;;;;;;1.52;1.25;;;20.40;82.10;;;;;;5092565;28;20204;-86
2023/07/09 03:25:51;;;;;;;1.10;0.80;;;20.40;81.80;;;;;;5104179;28;20214;-86
2023/07/09 03:28:21;;;;;;;0.47;0.47;;;20.40;81.80;;;;;;5098606;28;20640;-86
2023/07/09 03:30:53;;;;;;;1.88;1.58;;;20.40;82.30;;;;;;5107588;28;20198;-85
2023/07/09 03:33:22;;;;;;;0.77;0.77;;;20.40;82.20;;;;;;5104178;28;20204;-85
2023/07/09 03:35:51;;;;;;;0.50;0.43;;;20.40;82.00;;;;;;5094919;28;20288;-85
2023/07/09 03:38:20;;;;;;;0.70;0.70;;;20.40;81.90;;;;;;5098586;28;20283;-83
2023/07/09 03:40:51;;;;;;;0.70;0.50;;;20.50;81.90;;;;;;5106819;27;20192;-84
2023/07/09 03:43:22;;;;;;;0.90;0.68;;;20.50;81.70;;;;;;5093436;28;20186;-84
2023/07/09 03:45:51;;;;;;;1.95;0.82;;;20.60;81.90;;;;;;5102373;28;20201;-85
2023/07/09 03:48:21;;;;;;;0.57;0.57;;;20.60;81.70;;;;;;5091790;28;20197;-86
2023/07/09 03:50:50;;;;;;;1.25;1.00;;;20.60;81.60;;;;;;5090033;28;20199;-82
2023/07/09 03:53:19;;;;;;;1.02;0.82;;;20.70;81.60;;;;;;5099198;28;20196;-85
2023/07/09 03:55:52;;;;;;;0.52;0.52;;;20.70;81.70;;;;;;5102720;28;20189;-85
2023/07/09 03:58:23;;;;;;;0.63;0.63;;;20.70;81.70;;;;;;5089386;28;20182;-85
2023/07/09 04:00:52;;;;;;;2.47;0.52;;;20.70;81.80;;;;;;5097070;28;20721;-87
2023/07/09 04:03:20;;;;;;;0.70;0.40;;;20.70;81.70;;;;;;5100455;27;20206;-87
2023/07/09 04:05:49;;;;;;;0.85;0.60;;;20.80;81.60;;;;;;5124691;27;20208;-87
2023/07/09 04:08:18;;;;;;;0.40;0.40;;;20.80;81.60;;;;;;5093301;27;20226;-84
2023/07/09 04:10:46;;;;;;;0.52;0.40;;;20.90;81.60;;;;;;5108970;27;20192;-84
2023/07/09 04:13:15;;;;;;;0.35;0.30;;;20.90;81.60;;;;;;5102299;27;20194;-84
2023/07/09 04:15:45;;;;;;;0.43;0.43;;;21.00;81.50;;;;;;5101058;27;20202;-84
2023/07/09 04:18:14;;;;;;;3.25;0.73;;;21.10;81.40;;;;;;5086781;28;20353;-83
2023/07/09 04:20:42;;;;;;;0.32;0.32;;;21.10;81.30;;;;;;5105542;27;20708;-87
2023/07/09 04:23:12;;;;;;;2.05;0.60;;;21.20;81.10;;;;;;5108703;27;20197;-86
2023/07/09 04:25:41;;;;;;;0.77;0.40;;;21.30;81.10;;;;;;5099242;27;20210;-87
2023/07/09 04:28:09;;;;;;;0.47;0.40;;;21.30;81.00;;;;;;5096800;28;20197;-86
2023/07/09 04:30:39;;;;;;;0.30;0.30;;;21.40;81.00;;;;;;5107482;27;20720;-86
2023/07/09 04:33:09;;;;;;;0.40;0.35;;;21.50;81.10;;;;;;5105124;27;20598;-86
2023/07/09 04:35:38;;;;;;;2.83;0.50;;;21.50;81.10;;;;;;5102843;28;20190;-87
2023/07/09 04:38:08;;;;;;;0.95;0.95;;;21.60;81.10;;;;;;5092749;28;20229;-85
2023/07/09 04:40:36;;;;;;;0.65;0.47;;;21.70;81.00;;;;;;5102157;27;20194;-85
2023/07/09 04:43:05;;;;;;;0.30;0.30;;;21.70;80.90;;;;;;5110941;27;20200;-86
2023/07/09 04:45:34;;;;;;;0.30;0.30;;;21.70;80.80;;;;;;5092236;28;20204;-86
2023/07/09 04:48:03;;;;;;;0.32;0.32;;;21.90;80.80;;;;;;5100145;27;20194;-86
2023/07/09 04:50:33;;;;;;;0.28;0.28;;;21.90;80.60;;;;;;5098318;27;20283;-86
2023/07/09 04:53:02;;;;;;;2.30;0.43;;;22.00;80.40;;;;;;5095788;28;20193;-86
2023/07/09 04:55:31;;;;;;;1.20;0.47;;;22.10;80.00;;;;;;5094767;27;20283;-86
2023/07/09 04:58:00;;;;;;;1.60;0.73;;;22.20;79.90;;;;;;5097185;27;20280;-87
2023/07/09 05:00:28;;;;;;;0.30;0.30;;;22.20;79.70;;;;;;5090771;28;20442;-86
2023/07/09 05:02:57;;;;;;;0.45;0.40;;;22.40;79.90;;;;;;5094076;28;20548;-86
2023/07/09 05:05:26;;;;;;;0.50;0.50;;;22.50;79.80;;;;;;5103952;27;20208;-86
2023/07/09 05:07:56;;;;;;;0.85;0.63;;;22.50;79.40;;;;;;5099512;27;20213;-88
2023/07/09 05:10:25;;;;;;;0.40;0.40;;;22.60;79.40;;;;;;5104335;27;20560;-85
2023/07/09 05:12:55;;;;;;;1.00;0.57;;;22.60;79.40;;;;;;5092941;28;20202;-85
2023/07/09 05:15:25;;;;;;;0.43;0.40;;;22.70;79.30;;;;;;5099688;27;20265;-85
2023/07/09 05:17:53;;;;;;;0.45;0.40;;;22.70;79.10;;;;;;5101275;28;20227;-86
2023/07/09 05:20:22;;;;;;;0.50;0.50;;;22.80;78.90;;;;;;5098215;27;20253;-84
2023/07/09 05:22:50;;;;;;;0.32;0.30;;;22.90;78.60;;;;;;5099627;28;20193;-86
2023/07/09 05:25:20;;;;;;;0.32;0.32;;;23.00;78.50;;;;;;5106438;27;20245;-85
2023/07/09 05:27:49;;;;;;;0.57;0.52;;;23.10;78.30;;;;;;5097451;27;20463;-84
2023/07/09 05:30:18;;;;;;;1.85;0.50;;;23.10;78.00;;;;;;5103502;27;20316;-85
2023/07/09 05:32:47;;;;;;;0.30;0.20;;;23.20;78.10;;;;;;5097110;27;20667;-85
2023/07/09 05:35:16;;;;;;;0.63;0.55;;;23.20;77.90;;;;;;5101547;27;20197;-86
2023/07/09 05:37:45;;;;;;;0.45;0.30;;;23.30;78.60;;;;;;5097924;27;20287;-86
2023/07/09 05:40:14;;;;;;;0.68;0.50;;;23.40;77.40;;;;;;5108136;27;20194;-88
2023/07/09 05:42:44;;;;;;;1.05;0.88;;;23.50;77.10;;;;;;5097322;27;20646;-87
2023/07/09 05:45:12;;;;;;;0.40;0.40;;;23.50;75.20;;;;;;5097109;27;20655;-86
2023/07/09 05:47:41;;;;;;;0.95;0.70;;;23.60;74.90;;;;;;5102380;27;20212;-88
2023/07/09 05:50:11;;;;;;;0.85;0.65;;;23.70;74.30;;;;;;5094239;28;20278;-87
2023/07/09 05:52:39;;;;;;;0.32;0.32;;;23.80;74.00;;;;;;5101994;27;20225;-85
2023/07/09 05:55:09;;;;;;;0.30;0.30;;;23.80;74.70;;;;;;5092617;27;20190;-85
2023/07/09 05:57:38;;;;;;;0.55;0.52;;;23.90;74.10;;;;;;5094300;27;20185;-84
2023/07/09 06:00:10;;;;;;;1.55;0.30;;;24.00;74.10;;;;;;5099538;27;20196;-85
2023/07/09 06:02:40;;;;;;;0.40;0.40;;;24.10;73.80;;;;;;5098377;27;20734;-83
2023/07/09 06:05:11;;;;;;;0.38;0.30;;;24.20;73.70;;;;;;5097398;27;20189;-84
2023/07/09 06:07:40;;;;;;;0.65;0.65;;;24.30;73.80;;;;;;5096166;28;20273;-86
2023/07/09 06:10:10;;;;;;;0.90;0.85;;;24.30;73.80;;;;;;5093433;28;21869;-87
2023/07/09 06:12:39;;;;;;;0.70;0.70;;;24.50;73.50;;;;;;5102138;28;20189;-86
2023/07/09 06:15:12;;;;;;;0.93;0.40;;;24.50;72.90;;;;;;5099993;27;20268;-87
2023/07/09 06:17:41;;;;;;;0.40;0.40;;;24.60;72.30;;;;;;5100962;28;20279;-87
2023/07/09 06:20:11;;;;;;;0.30;0.30;;;24.70;71.40;;;;;;5097083;27;20548;-85
2023/07/09 06:22:40;;;;;;;0.30;0.30;;;24.80;70.70;;;;;;5105461;27;20281;-82
2023/07/09 06:25:09;;;;;;;0.20;0.20;;;24.90;68.40;;;;;;5101538;27;20250;-86
2023/07/09 06:27:38;;;;;;;2.50;0.88;;;25.00;67.70;;;;;;5095229;27;20193;-86
2023/07/09 06:30:07;;;;;;;0.40;0.40;;;25.00;67.70;;;;;;5097767;28;20304;-87
2023/07/09 06:32:37;;;;;;;0.50;0.50;;;25.10;67.90;;;;;;5100668;28;20212;-86
2023/07/09 06:35:06;;;;;;;0.30;0.22;;;25.20;67.30;;;;;;5097783;27;20188;-88
2023/07/09 06:37:34;;;;;;;0.38;0.38;;;25.30;65.80;;;;;;5100538;27;20197;-88
2023/07/09 06:40:04;;;;;;;0.80;0.80;;;25.30;65.00;;;;;;5098012;28;20213;-86
2023/07/09 06:42:33;;;;;;;0.90;0.68;;;25.40;65.10;;;;;;5107483;27;20200;-85
2023/07/09 06:45:01;;;;;;;1.75;0.68;;;25.50;64.10;;;;;;5101555;27;20197;-83
2023/07/09 06:47:30;;;;;;;0.32;0.32;;;25.60;64.70;;;;;;5108923;27;20992;-86
2023/07/09 06:50:00;;;;;;;0.30;0.20;;;25.60;64.20;;;;;;5091230;28;20564;-83
2023/07/09 06:52:28;;;;;;;0.43;0.43;;;25.70;64.30;;;;;;5099810;27;20198;-86
2023/07/09 06:54:59;;;;;;;0.35;0.35;;;25.80;64.90;;;;;;5100784;27;20590;-87
2023/07/09 06:57:27;;;;;;;0.90;0.73;;;25.90;65.10;;;;;;5090860;27;20201;-86
2023/07/09 06:59:56;;;;;;;0.50;0.50;;;26.00;65.00;;;;;;5108138;27;20209;-86
2023/07/09 07:02:25;;;;;;;0.40;0.40;;;26.00;64.40;;;;;;5095454;28;20991;-86
2023/07/09 07:04:54;;;;;;;0.60;0.60;;;26.10;64.50;;;;;;5099696;28;20193;-85
2023/07/09 07:07:24;;;;;;;0.57;0.57;;;26.10;60.70;;;;;;5092359;28;20193;-87
2023/07/09 07:09:52;;;;;;;0.35;0.32;;;26.20;60.10;;;;;;5099902;28;20309;-87
2023/07/09 07:12:29;;;;;;;0.30;0.30;;;26.20;60.90;;;;;;5094303;28;20228;-86
2023/07/09 07:14:58;;;;;;;0.30;0.30;;;26.30;60.30;;;;;;5092556;28;20196;-86
2023/07/09 07:17:26;;;;;;;0.22;0.22;;;26.40;60.70;;;;;;5094609;28;20206;-85
2023/07/09 07:19:55;;;;;;;0.38;0.38;;;26.40;60.70;;;;;;5090421;28;20193;-85
2023/07/09 07:22:26;;;;;;;0.20;0.20;;;26.50;60.70;;;;;;5094673;28;20205;-87
2023/07/09 07:24:55;;;;;;;0.25;0.25;;;26.50;59.50;;;;;;5103596;28;20185;-87
2023/07/09 07:27:23;;;;;;;0.68;0.60;;;26.60;58.40;;;;;;5091294;28;20277;-84
2023/07/09 07:29:52;;;;;;;0.20;0.20;;;26.60;58.20;;;;;;5091724;28;20628;-86
2023/07/09 07:32:20;;;;;;;0.40;0.40;;;26.70;57.80;;;;;;5097610;28;20597;-83
2023/07/09 07:34:49;;;;;;;0.20;0.20;;;26.70;56.60;;;;;;5096280;28;20193;-85
2023/07/09 07:37:20;;;;;;;0.20;0.20;;;26.70;56.20;;;;;;5103176;28;20194;-86
2023/07/09 07:39:50;;;;;;;0.40;0.40;;;26.80;56.70;;;;;;5103010;27;20287;-86
2023/07/09 07:42:19;;;;;;;0.30;0.30;;;26.80;56.90;;;;;;5093970;28;20193;-87
2023/07/09 07:44:47;;;;;;;0.30;0.30;;;26.90;57.20;;;;;;5098116;28;20715;-84
2023/07/09 07:47:16;;;;;;;1.13;0.60;;;26.90;57.20;;;;;;5100960;27;20193;-86
2023/07/09 07:49:45;;;;;;;0.32;0.32;;;27.00;57.20;;;;;;5099255;28;20229;-85
2023/07/09 07:52:14;;;;;;;0.30;0.30;;;27.00;56.30;;;;;;5090963;28;20229;-82
2023/07/09 07:54:43;;;;;;;1.25;0.95;;;27.00;54.70;;;;;;5102597;27;20201;-88
2023/07/09 07:57:14;;;;;;;0.22;0.22;;;27.10;54.50;;;;;;5092799;27;20197;-87
2023/07/09 07:59:42;;;;;;;0.55;0.30;;;27.10;55.10;;;;;;5103472;27;20563;-84
2023/07/09 08:02:14;;;;;;;0.50;0.50;;;27.10;54.40;;;;;;5104083;27;20283;-90
2023/07/09 08:04:43;;;;;;;0.40;0.40;;;27.20;53.10;;;;;;5100344;27;20205;-85
2023/07/09 08:07:12;;;;;;;0.20;0.20;;;27.20;53.40;;;;;;5095830;27;20193;-84
2023/07/09 08:09:43;;;;;;;0.52;0.52;;;27.20;52.80;;;;;;5095136;28;20221;-84
2023/07/09 08:12:14;;;;;;;0.10;0.10;;;27.30;54.10;;;;;;5096754;28;20307;-84
2023/07/09 08:14:46;;;;;;;0.47;0.40;;;27.30;53.10;;;;;;5096565;28;20247;-86
2023/07/09 08:17:14;;;;;;;0.20;0.20;;;27.40;52.90;;;;;;5102876;27;20638;-84
2023/07/09 08:19:47;;;;;;;0.20;0.20;;;27.40;53.10;;;;;;5093861;28;20212;-86
2023/07/09 08:22:16;;;;;;;0.30;0.30;;;27.50;53.40;;;;;;5105210;27;20277;-84
2023/07/09 08:24:45;;;;;;;0.60;0.40;;;27.50;52.80;;;;;;5097682;27;20214;-85
2023/07/09 08:27:15;;;;;;;0.35;0.25;;;27.50;53.20;;;;;;5102900;27;20208;-84
2023/07/09 08:29:43;;;;;;;2.47;0.30;;;27.60;52.00;;;;;;5100564;28;20194;-85
2023/07/09 08:32:13;;;;;;;0.82;0.82;;;27.60;51.90;;;;;;5093850;28;20617;-86
2023/07/09 08:34:42;;;;;;;0.22;0.22;;;27.60;52.60;;;;;;5095850;27;22160;-84
2023/07/09 08:37:30;;;;;;;0.63;0.55;;;27.70;52.40;;;;;;5098500;27;20573;-86
2023/07/09 08:39:59;;;;;;;0.73;0.68;;;27.80;53.40;;;;;;5104008;28;20189;-85
2023/07/09 08:42:34;;;;;;;0.63;0.40;;;27.80;52.70;;;;;;5100110;27;20292;-86
2023/07/09 08:45:25;;;;;;;0.38;0.38;;;27.80;52.80;;;;;;5098089;28;20238;-86
2023/07/09 08:48:02;;;;;;;0.50;0.50;;;27.90;52.80;;;;;;5100109;28;20193;-86
2023/07/09 08:50:37;;;;;;;0.52;0.52;;;28.00;52.60;;;;;;5098548;28;20631;-85
2023/07/09 08:53:10;;;;;;;0.47;0.47;;;28.00;52.80;;;;;;5100923;28;20219;-85
2023/07/09 08:55:40;;;;;;;0.45;0.45;;;28.10;52.90;;;;;;5099394;28;20547;-85
2023/07/09 08:58:17;;;;;;;0.30;0.30;;;28.10;52.40;;;;;;5095139;28;20196;-85
2023/07/09 09:00:53;;;;;;;0.20;0.20;;;28.20;52.60;;;;;;5104019;27;20193;-86
2023/07/09 09:03:31;;;;;;;1.63;1.05;;;28.20;52.40;;;;;;5103575;27;20280;-85
2023/07/09 09:06:00;;;;;;;0.20;0.20;;;28.30;52.20;;;;;;5093524;27;22386;-86
2023/07/09 09:08:40;;;;;;;0.65;0.65;;;28.30;51.30;;;;;;5097850;28;20233;-86
2023/07/09 09:11:20;;;;;;;0.73;0.43;;;28.30;51.00;;;;;;5095613;28;20677;-86
2023/07/09 09:13:54;;;;;;;0.20;0.20;;;28.30;50.50;;;;;;5097181;28;20190;-85
2023/07/09 09:16:28;;;;;;;0.30;0.20;;;28.30;50.50;;;;;;5096538;28;20616;-86
2023/07/09 09:18:59;;;;;;;0.47;0.28;;;28.40;50.70;;;;;;5105249;27;20292;-84
2023/07/09 09:21:33;;;;;;;0.20;0.20;;;28.40;51.00;;;;;;5100154;28;21821;-86
2023/07/09 09:24:14;;;;;;;0.35;0.35;;;28.50;50.90;;;;;;5098070;28;20208;-84
2023/07/09 09:26:44;;;;;;;0.30;0.30;;;28.50;50.90;;;;;;5098418;28;20545;-85
2023/07/09 09:29:16;;;;;;;0.30;0.30;;;28.50;50.90;;;;;;5102214;28;20225;-83
2023/07/09 09:31:49;;;;;;;0.47;0.47;;;28.60;50.10;;;;;;5098700;28;20328;-86
2023/07/09 09:34:20;;;;;;;0.63;0.32;;;28.60;49.50;;;;;;5104518;27;20229;-86
2023/07/09 09:36:50;;;;;;;0.35;0.30;;;28.60;49.70;;;;;;5098740;27;20201;-85
2023/07/09 09:39:19;;;;;;;0.30;0.30;;;28.70;49.60;;;;;;5106284;27;20651;-86
2023/07/09 09:41:49;;;;;;;0.28;0.28;;;28.70;49.10;;;;;;5103708;28;20185;-85
2023/07/09 09:44:26;;;;;;;0.30;0.30;;;28.80;49.40;;;;;;5091824;28;20197;-88
2023/07/09 09:46:57;;;;;;;0.30;0.30;;;28.80;48.50;;;;;;5091267;28;20598;-86
2023/07/09 09:49:29;;;;;;;0.35;0.35;;;28.80;48.70;;;;;;5114106;27;20219;-85
2023/07/09 09:52:03;;;;;;;0.82;0.75;;;28.90;48.60;;;;;;5099462;27;20209;-84
2023/07/09 09:54:32;;;;;;;0.20;0.20;;;28.90;49.10;;;;;;5096697;27;20238;-86
2023/07/09 09:57:01;;;;;;;0.30;0.30;;;28.90;47.80;;;;;;5091008;27;20235;-85
2023/07/09 09:59:32;;;;;;;0.35;0.35;;;29.00;47.20;;;;;;5099374;27;20646;-84
2023/07/09 10:02:03;;;;;;;0.65;0.40;;;29.00;47.70;;;;;;5093322;27;20193;-84
2023/07/09 10:04:32;;;;;;;0.63;0.60;;;29.00;47.60;;;;;;5095386;28;20569;-84
2023/07/09 10:07:06;;;;;;;0.80;0.80;;;29.10;48.10;;;;;;5105502;27;20280;-86
2023/07/09 10:09:45;;;;;;;4.82;0.43;;;29.20;48.60;;;;;;5107946;27;20288;-86
2023/07/09 10:12:19;;;;;;;0.38;0.38;;;29.20;47.50;;;;;;5097547;28;20278;-85
2023/07/09 10:15:01;;;;;;;0.57;0.57;;;29.30;48.00;;;;;;5099297;27;20565;-86
2023/07/09 10:17:37;;;;;;;0.65;0.55;;;29.30;46.90;;;;;;5096663;27;20193;-86
2023/07/09 10:20:19;;;;;;;0.63;0.30;;;29.30;46.90;;;;;;5097668;27;20655;-86
2023/07/09 10:22:55;;;;;;;0.17;0.17;;;29.40;47.40;;;;;;5099432;27;20193;-86
2023/07/09 10:25:39;;;;;;;1.30;0.45;;;29.40;47.70;;;;;;5104240;27;20183;-85
2023/07/09 10:28:22;;;;;;;0.32;0.32;;;29.40;47.20;;;;;;5105651;27;20637;-86
2023/07/09 10:31:05;;;;;;;0.50;0.30;;;29.50;47.20;;;;;;5099819;27;20679;-84
2023/07/09 10:33:46;;;;;;;0.68;0.60;;;29.50;46.90;;;;;;5105648;27;20264;-85
2023/07/09 10:36:25;;;;;;;2.67;0.75;;;29.60;47.00;;;;;;5107641;27;20258;-84
2023/07/09 10:39:00;;;;;;;1.10;0.40;;;29.60;46.40;;;;;;5097669;27;20224;-83
2023/07/09 10:41:31;;;;;;;0.20;0.20;;;29.60;46.20;;;;;;5089283;27;20188;-85
2023/07/09 10:44:06;;;;;;;0.32;0.32;;;29.60;46.10;;;;;;5106373;28;20197;-84
2023/07/09 10:46:39;;;;;;;0.60;0.60;;;29.70;45.60;;;;;;5090991;28;20203;-85
2023/07/09 10:49:13;;;;;;;1.00;0.52;;;29.70;46.10;;;;;;5094089;28;20714;-84
2023/07/09 10:51:48;;;;;;;1.95;0.73;;;29.80;46.40;;;;;;5108791;27;20276;-84
2023/07/09 10:54:25;;;;;;;0.32;0.32;;;29.80;46.50;;;;;;5090907;28;20224;-84
2023/07/09 10:57:01;;;;;;;0.57;0.40;;;29.80;46.50;;;;;;5096010;28;20204;-84
2023/07/09 10:59:32;;;;;;;0.43;0.43;;;29.90;46.80;;;;;;5098522;28;20283;-86
2023/07/09 11:02:15;;;;;;;7.18;1.42;;;29.90;46.60;;;;;;5098016;28;20197;-87
2023/07/09 11:04:48;;;;;;;1.73;0.40;;;29.90;46.00;;;;;;5095697;28;20204;-84
2023/07/09 11:07:22;;;;;;;0.28;0.28;;;29.90;45.60;;;;;;5095214;28;20768;-84
2023/07/09 11:09:54;;;;;;;0.30;0.30;;;29.90;45.60;;;;;;5099626;28;20199;-87
2023/07/09 11:12:34;;;;;;;0.93;0.60;;;30.00;46.20;;;;;;5096430;28;20611;-85
2023/07/09 11:15:08;;;;;;;1.10;0.43;;;30.10;46.70;;;;;;5095470;28;20191;-86
2023/07/09 11:17:42;;;;;;;0.60;0.55;;;30.10;46.80;;;;;;5096778;28;20209;-88
2023/07/09 11:20:19;;;;;;;0.20;0.20;;;30.20;46.50;;;;;;5099697;28;20199;-85
2023/07/09 11:22:54;;;;;;;0.50;0.50;;;30.20;46.80;;;;;;5103450;28;20253;-87
2023/07/09 11:25:32;;;;;;;0.32;0.32;;;30.30;46.30;;;;;;5101395;28;20199;-90
2023/07/09 11:28:05;;;;;;;0.30;0.30;;;30.30;46.20;;;;;;5091480;28;20630;-88
2023/07/09 11:30:45;;;;;;;0.60;0.38;;;30.30;46.10;;;;;;5095636;28;20205;-88
2023/07/09 11:33:20;;;;;;;0.68;0.68;;;30.40;46.80;;;;;;5097198;28;20221;-87
2023/07/09 11:35:54;;;;;;;0.98;0.90;;;30.50;46.70;;;;;;5103230;28;20205;-87
2023/07/09 11:38:25;;;;;;;0.52;0.52;;;30.50;46.80;;;;;;5089742;28;20666;-87
2023/07/09 11:40:55;;;;;;;0.98;0.43;;;30.50;47.00;;;;;;5103451;28;20201;-87
2023/07/09 11:43:33;;;;;;;0.30;0.30;;;30.50;46.80;;;;;;5102803;28;20185;-87
2023/07/09 11:46:11;;;;;;;2.50;1.30;;;30.60;47.20;;;;;;5096057;28;20201;-85
2023/07/09 11:48:42;;;;;;;4.20;2.40;;;30.60;47.30;;;;;;5096013;28;20200;-85
2023/07/09 11:51:17;;;;;;;2.83;2.47;;;30.60;47.30;;;;;;5088248;28;20280;-85
2023/07/09 11:53:49;;;;;;;2.65;1.20;;;30.70;47.50;;;;;;5089200;28;20482;-86
2023/07/09 11:56:20;;;;;;;1.88;1.25;;;30.80;47.10;;;;;;5111626;28;20207;-87
2023/07/09 11:58:50;;;;;;;0.70;0.55;;;30.80;46.90;;;;;;5098667;27;20212;-87
2023/07/09 12:01:24;;;;;;;0.90;0.68;;;30.80;46.90;;;;;;5089632;28;20639;-86
2023/07/09 12:03:57;;;;;;;0.75;0.55;;;30.80;46.80;;;;;;5098423;28;20589;-87
2023/07/09 12:06:29;;;;;;;0.30;0.30;;;30.80;46.90;;;;;;5100178;28;20189;-87
2023/07/09 12:08:58;;;;;;;0.65;0.60;;;30.80;46.70;;;;;;5106163;28;20244;-86
2023/07/09 12:11:29;;;;;;;0.95;0.32;;;30.80;46.90;;;;;;5090334;28;20289;-88
2023/07/09 12:14:03;;;;;;;0.40;0.35;;;30.90;47.30;;;;;;5106061;28;20704;-87
2023/07/09 12:16:35;;;;;;;0.30;0.30;;;31.00;47.10;;;;;;5106686;28;20188;-85
2023/07/09 12:19:05;;;;;;;0.38;0.38;;;31.10;46.80;;;;;;5094175;28;20543;-86
2023/07/09 12:21:38;;;;;;;0.88;0.70;;;31.10;47.90;;;;;;5089881;28;20202;-86
2023/07/09 12:24:19;;;;;;;0.43;0.43;;;31.30;47.20;;;;;;5096990;28;20201;-87
2023/07/09 12:26:50;;;;;;;0.30;0.30;;;31.30;45.80;;;;;;5095344;28;20541;-84
2023/07/09 12:29:18;;;;;;;0.28;0.28;;;31.40;46.10;;;;;;5095627;28;20279;-87
2023/07/09 12:31:47;;;;;;;0.22;0.20;;;31.50;46.30;;;;;;5094852;27;20229;-84
2023/07/09 12:34:18;;;;;;;0.20;0.20;;;31.60;47.10;;;;;;5100083;28;20698;-85
2023/07/09 12:36:50;;;;;;;0.47;0.47;;;31.70;46.30;;;;;;5100670;28;20190;-85
2023/07/09 12:39:26;;;;;;;0.98;0.77;;;31.70;46.10;;;;;;5102490;28;20203;-86
2023/07/09 12:41:57;;;;;;;0.38;0.38;;;31.70;46.50;;;;;;5102239;27;20296;-85
2023/07/09 12:44:27;;;;;;;0.30;0.30;;;31.70;46.10;;;;;;5091879;28;20600;-85
2023/07/09 12:46:56;;;;;;;0.20;0.20;;;31.80;45.70;;;;;;5095912;27;21421;-87
2023/07/09 12:49:29;;;;;;;0.50;0.50;;;31.90;45.70;;;;;;5097924;28;20189;-87
2023/07/09 12:52:02;;;;;;;0.30;0.30;;;31.90;45.30;;;;;;5092078;27;20194;-87
2023/07/09 12:54:31;;;;;;;0.40;0.40;;;32.00;45.60;;;;;;5092802;28;20691;-88
2023/07/09 12:57:01;;;;;;;0.30;0.30;;;32.00;45.00;;;;;;5099164;28;20198;-86
2023/07/09 12:59:39;;;;;;;0.10;0.10;;;32.10;44.90;;;;;;5103182;28;20273;-87
2023/07/09 13:02:15;;;;;;;0.30;0.30;;;32.10;44.80;;;;;;5109574;27;20193;-87
2023/07/09 13:04:46;;;;;;;0.50;0.50;;;32.10;44.30;;;;;;5093695;27;20189;-85
2023/07/09 13:07:32;;;;;;;0.43;0.43;;;32.10;44.40;;;;;;5091176;28;20189;-86
2023/07/09 13:10:07;;;;;;;0.30;0.30;;;32.20;44.30;;;;;;5097995;28;20651;-87